Houlton, Maine
Current Conditions -  °F | °C
As of 6:53 PM on Monday 22 Dec 2014 (Local Time) from KHUL Reporting Station
Overcast Overcast  
Wind Chill: -2°   Ceiling: 4000
Heat Index: -2°   Visibility: 10mi
Dew Point: -4°   Wind: 0mph
Humidity: 85%   Direction: NA
Pressure: 30.4"   Gusts: NA
Location:  46.13°N, 67.84°W
Report Text: KHUL 222353Z AUTO 00000KT 10SM OVC040 M02/M04 A3040 RMK AO2 SLP304 T10221044 11011 21022 57000
Loading
Personal Weather Stations






























Interactive Weather Map New forecast layout! Learn more

10-Day Weather Forecast

Advertisements
Track Severe Weather on mobile